Time;durP1;ratioP1;P1;durP2;ratioP2;P2;SDS_P1;SDS_P2;PMS_P1;PMS_P2;Temp;Humidity;BMP_temperature;BMP_pressure;BME280_temperature;BME280_humidity;BME280_pressure;Samples;Min_cycle;Max_cycle;Signal;HPM_P1;HPM_P2
2023/10/20 00:01:28;;;;;;;20.92;12.57;;;8.50;99.90;;;;;;5097092;28;20047;-75
2023/10/20 00:03:54;;;;;;;20.17;12.68;;;8.20;99.90;;;;;;5099069;28;20043;-75
2023/10/20 00:06:20;;;;;;;19.60;13.02;;;8.20;99.90;;;;;;5097686;28;20047;-75
2023/10/20 00:08:46;;;;;;;18.85;11.88;;;8.20;99.90;;;;;;5096703;28;20051;-75
2023/10/20 00:11:12;;;;;;;17.73;11.98;;;8.10;99.90;;;;;;5097766;28;20039;-75
2023/10/20 00:13:38;;;;;;;;;;;8.20;99.90;;;;;;5097740;28;20044;-75
2023/10/20 00:16:04;;;;;;;19.08;11.68;;;8.30;99.90;;;;;;5097421;28;19969;-75
2023/10/20 00:18:29;;;;;;;;;;;8.20;99.90;;;;;;5097786;28;20486;-75
2023/10/20 00:20:55;;;;;;;20.07;10.93;;;8.30;99.90;;;;;;5096717;28;20038;-75
2023/10/20 00:23:20;;;;;;;18.42;10.90;;;8.10;99.90;;;;;;5097994;28;20403;-75
2023/10/20 00:25:46;;;;;;;;;;;8.10;99.90;;;;;;5097791;28;20498;-75
2023/10/20 00:28:11;;;;;;;16.58;10.20;;;8.20;99.90;;;;;;5097031;28;19928;-75
2023/10/20 00:30:39;;;;;;;;;;;8.20;99.90;;;;;;5098356;28;20090;-75
2023/10/20 00:33:05;;;;;;;17.27;10.60;;;8.20;99.90;;;;;;5097589;28;20355;-75
2023/10/20 00:35:31;;;;;;;16.15;10.25;;;8.20;99.90;;;;;;5093295;28;20080;-75
2023/10/20 00:38:01;;;;;;;17.35;10.23;;;8.20;99.90;;;;;;5093038;28;20054;-75
2023/10/20 00:40:27;;;;;;;18.25;10.23;;;8.10;99.90;;;;;;5094575;28;20040;-75
2023/10/20 00:42:53;;;;;;;17.08;10.40;;;8.60;99.90;;;;;;5093512;28;20050;-75
2023/10/20 00:45:19;;;;;;;15.13;10.40;;;8.20;99.90;;;;;;5093953;28;20040;-75
2023/10/20 00:47:45;;;;;;;18.30;10.73;;;8.20;99.90;;;;;;5094003;28;20101;-75
2023/10/20 00:50:13;;;;;;;17.30;10.52;;;8.20;99.90;;;;;;5093753;28;20050;-75
2023/10/20 00:52:41;;;;;;;16.77;9.65;;;8.20;99.90;;;;;;5094557;28;20101;-75
2023/10/20 00:55:08;;;;;;;16.15;9.90;;;8.20;99.90;;;;;;5093802;28;20075;-75
2023/10/20 00:57:35;;;;;;;15.52;9.93;;;8.20;99.90;;;;;;5092107;28;20111;-75
2023/10/20 01:00:03;;;;;;;17.80;10.80;;;8.20;99.90;;;;;;5093358;28;20044;-75
2023/10/20 01:02:30;;;;;;;16.65;10.25;;;8.40;99.90;;;;;;5093541;28;20096;-75
2023/10/20 01:04:57;;;;;;;16.95;10.18;;;8.10;99.90;;;;;;5092830;28;20071;-75
2023/10/20 01:07:24;;;;;;;14.18;9.35;;;8.10;99.90;;;;;;5093881;28;20056;-75
2023/10/20 01:09:50;;;;;;;15.30;9.85;;;8.10;99.90;;;;;;5092935;28;20088;-75
2023/10/20 01:12:16;;;;;;;15.05;9.65;;;8.10;99.90;;;;;;5093503;28;20052;-75
2023/10/20 01:14:42;;;;;;;16.83;9.68;;;8.10;99.90;;;;;;5093988;28;20097;-75
2023/10/20 01:17:09;;;;;;;15.02;10.25;;;8.10;99.90;;;;;;5092379;28;20048;-75
2023/10/20 01:19:37;;;;;;;15.65;9.90;;;8.10;99.90;;;;;;5093334;28;20499;-75
2023/10/20 01:22:03;;;;;;;15.48;9.75;;;8.40;99.90;;;;;;5092579;28;20068;-75
2023/10/20 01:24:29;;;;;;;16.98;10.15;;;8.10;99.90;;;;;;5092791;28;20056;-75
2023/10/20 01:26:55;;;;;;;;;;;8.00;99.90;;;;;;5093762;28;20044;-75
2023/10/20 01:29:20;;;;;;;18.83;9.93;;;8.00;99.90;;;;;;5093539;28;19916;-75
2023/10/20 01:31:46;;;;;;;15.25;9.40;;;8.00;99.90;;;;;;5092537;28;20506;-75
2023/10/20 01:34:12;;;;;;;17.17;9.88;;;8.00;99.90;;;;;;5093200;28;20087;-75
2023/10/20 01:36:37;;;;;;;;;;;8.00;99.90;;;;;;5093619;28;20040;-75
2023/10/20 01:39:07;;;;;;;14.00;8.23;;;8.00;99.90;;;;;;5091747;28;20007;-75
2023/10/20 01:41:33;;;;;;;15.00;8.90;;;8.10;99.90;;;;;;5094741;28;20043;-75
2023/10/20 01:43:59;;;;;;;;;;;8.00;99.90;;;;;;5093588;28;20051;-75
2023/10/20 01:46:24;;;;;;;15.57;9.07;;;8.00;99.90;;;;;;5092846;28;19927;-75
2023/10/20 01:48:50;;;;;;;;;;;8.00;99.90;;;;;;5092875;28;20044;-75
2023/10/20 01:51:16;;;;;;;14.40;8.82;;;8.30;99.90;;;;;;5092547;28;19926;-75
2023/10/20 01:53:41;;;;;;;;;;;8.00;99.90;;;;;;5092959;28;20044;-75
2023/10/20 01:56:07;;;;;;;16.27;9.00;;;8.30;99.90;;;;;;5094044;28;19924;-75
2023/10/20 01:58:35;;;;;;;;;;;8.00;99.90;;;;;;5093183;28;20055;-75
2023/10/20 02:01:01;;;;;;;17.73;9.82;;;8.00;99.90;;;;;;5091703;28;20390;-75
2023/10/20 02:03:26;;;;;;;;;;;8.00;99.90;;;;;;5093140;28;20040;-75
2023/10/20 02:05:52;;;;;;;17.08;9.65;;;8.00;99.90;;;;;;5092067;28;19920;-75
2023/10/20 02:08:17;;;;;;;;;;;8.00;99.90;;;;;;5092586;28;20039;-75
2023/10/20 02:10:44;;;;;;;17.77;9.70;;;8.30;99.90;;;;;;5092979;28;19920;-75
2023/10/20 02:13:10;;;;;;;15.43;9.07;;;8.00;99.90;;;;;;5091495;28;20411;-75
2023/10/20 02:15:36;;;;;;;17.55;9.65;;;8.00;99.90;;;;;;5092667;28;20046;-75
2023/10/20 02:18:02;;;;;;;16.40;10.05;;;8.00;99.90;;;;;;5093279;28;20044;-75
2023/10/20 02:20:27;;;;;;;16.75;9.57;;;8.10;99.90;;;;;;5091155;28;20040;-75
2023/10/20 02:22:53;;;;;;;17.92;9.95;;;8.10;99.90;;;;;;5092340;28;20090;-75
2023/10/20 02:25:20;;;;;;;18.80;10.35;;;8.00;99.90;;;;;;5092606;28;20048;-75
2023/10/20 02:27:47;;;;;;;19.90;9.98;;;8.00;99.90;;;;;;5092749;28;20574;-75
2023/10/20 02:30:14;;;;;;;19.42;10.05;;;8.00;99.90;;;;;;5092063;28;20509;-75
2023/10/20 02:32:43;;;;;;;19.70;10.88;;;8.10;99.90;;;;;;5092405;28;20051;-75
2023/10/20 02:35:09;;;;;;;18.45;10.55;;;8.00;99.90;;;;;;5091134;28;20048;-75
2023/10/20 02:37:35;;;;;;;19.35;11.00;;;8.00;99.90;;;;;;5092257;28;20047;-75
2023/10/20 02:40:04;;;;;;;;;;;8.00;99.90;;;;;;5093284;28;20036;-75
2023/10/20 02:42:31;;;;;;;19.20;11.50;;;8.20;99.90;;;;;;5091209;28;19971;-74
2023/10/20 02:44:56;;;;;;;18.73;11.15;;;8.00;99.90;;;;;;5093035;28;20044;-74
2023/10/20 02:47:22;;;;;;;22.45;10.80;;;9.30;99.90;;;;;;5091944;28;20048;-75
2023/10/20 02:49:52;;;;;;;22.00;11.77;;;8.00;99.90;;;;;;5090535;28;20036;-75
2023/10/20 02:52:17;;;;;;;21.85;11.57;;;8.10;99.90;;;;;;5091751;28;20044;-74
2023/10/20 02:54:43;;;;;;;17.10;10.68;;;8.30;99.90;;;;;;5091797;28;20449;-75
2023/10/20 02:57:09;;;;;;;;;;;8.10;99.90;;;;;;5091213;28;20039;-75
2023/10/20 02:59:35;;;;;;;21.75;11.45;;;8.00;99.90;;;;;;5091256;28;19920;-75
2023/10/20 03:02:00;;;;;;;;;;;8.00;99.90;;;;;;5091903;28;20092;-75
2023/10/20 03:04:26;;;;;;;20.95;12.30;;;8.00;99.90;;;;;;5091034;28;20287;-75
2023/10/20 03:06:51;;;;;;;;;;;8.00;99.90;;;;;;5092157;28;20047;-75
2023/10/20 03:09:17;;;;;;;17.85;10.63;;;8.00;99.90;;;;;;5091636;28;19996;-75
2023/10/20 03:11:43;;;;;;;22.48;11.43;;;8.00;99.90;;;;;;5090893;28;20047;-75
2023/10/20 03:14:09;;;;;;;23.13;10.93;;;8.00;99.90;;;;;;5091432;28;20044;-75
2023/10/20 03:16:38;;;;;;;;;;;8.40;99.90;;;;;;5091336;28;20122;-75
2023/10/20 03:19:04;;;;;;;20.25;11.23;;;8.00;99.90;;;;;;5091037;28;20367;-75
2023/10/20 03:21:30;;;;;;;20.90;11.52;;;8.00;99.90;;;;;;5091165;28;20113;-75
2023/10/20 03:23:56;;;;;;;23.63;12.40;;;8.00;99.90;;;;;;5090759;28;20048;-74
2023/10/20 03:26:22;;;;;;;22.98;12.15;;;8.00;99.90;;;;;;5091635;28;20040;-75
2023/10/20 03:28:48;;;;;;;23.95;12.77;;;8.00;99.90;;;;;;5092598;28;20413;-75
2023/10/20 03:31:13;;;;;;;22.90;12.65;;;8.00;99.90;;;;;;5090375;28;20093;-75
2023/10/20 03:33:39;;;;;;;23.05;13.18;;;8.00;99.90;;;;;;5091672;28;20098;-75
2023/10/20 03:36:05;;;;;;;23.83;12.40;;;8.00;99.90;;;;;;5092560;28;20040;-74
2023/10/20 03:38:31;;;;;;;;;;;8.00;99.90;;;;;;5091023;28;20399;-75
2023/10/20 03:41:12;;;;;;;25.80;12.13;;;8.90;99.90;;;;;;5089943;28;20464;-75
2023/10/20 03:43:38;;;;;;;25.88;13.63;;;7.90;99.90;;;;;;5092550;28;20093;-74
2023/10/20 03:46:06;;;;;;;25.00;13.75;;;7.90;99.90;;;;;;5090011;28;20040;-74
2023/10/20 03:48:34;;;;;;;22.88;13.23;;;7.80;99.90;;;;;;5091574;28;20048;-73
2023/10/20 03:51:00;;;;;;;23.35;12.82;;;7.90;99.90;;;;;;5090590;28;20040;-74
2023/10/20 03:53:36;;;;;;;25.75;12.65;;;7.90;99.90;;;;;;5090229;28;20101;-74
2023/10/20 03:56:04;;;;;;;20.88;12.30;;;7.90;99.90;;;;;;5090994;28;20051;-74
2023/10/20 03:58:30;;;;;;;21.95;12.27;;;7.90;99.90;;;;;;5091016;28;20100;-75
2023/10/20 04:00:57;;;;;;;26.50;12.75;;;7.90;99.90;;;;;;5085490;28;20035;-74
2023/10/20 04:03:25;;;;;;;25.58;14.23;;;7.80;99.90;;;;;;5071069;28;20396;-75
2023/10/20 04:05:51;;;;;;;25.27;13.25;;;7.80;99.90;;;;;;5075212;28;20040;-75
2023/10/20 04:08:17;;;;;;;22.10;12.80;;;8.00;99.90;;;;;;5090276;28;20074;-75
2023/10/20 04:10:43;;;;;;;22.02;11.85;;;7.80;99.90;;;;;;5093185;28;20044;-75
2023/10/20 04:13:10;;;;;;;26.40;14.18;;;7.90;99.90;;;;;;5093865;28;20066;-75
2023/10/20 04:15:36;;;;;;;23.77;12.30;;;7.80;99.90;;;;;;5094415;28;20048;-75
2023/10/20 04:18:04;;;;;;;23.95;13.02;;;7.80;99.90;;;;;;5094093;28;20084;-75
2023/10/20 04:20:30;;;;;;;22.52;11.10;;;7.80;99.90;;;;;;5093734;28;20360;-74
2023/10/20 04:22:58;;;;;;;22.77;12.82;;;7.80;99.90;;;;;;5093207;28;20114;-75
2023/10/20 04:25:27;;;;;;;21.90;12.05;;;7.80;99.90;;;;;;5093007;28;20036;-75
2023/10/20 04:28:08;;;;;;;23.98;13.45;;;7.80;99.90;;;;;;5073521;28;20067;-74
2023/10/20 05:00:31;;;;;;;17.70;11.23;;;7.70;99.90;;;;;;5076520;28;20059;-72
2023/10/20 05:07:52;;;;;;;19.00;10.18;;;7.80;99.90;;;;;;5073074;28;20550;-72
2023/10/20 05:10:19;;;;;;;20.08;10.35;;;8.10;99.90;;;;;;5080450;28;20050;-73
2023/10/20 05:12:48;;;;;;;15.50;10.10;;;8.50;99.90;;;;;;5092644;28;20067;-73
2023/10/20 05:15:14;;;;;;;24.40;10.80;;;8.30;99.90;;;;;;5081495;28;20456;-72
2023/10/20 05:17:41;;;;;;;19.65;11.05;;;7.80;99.90;;;;;;5086269;28;20040;-73
2023/10/20 05:20:12;;;;;;;14.98;9.55;;;7.70;99.90;;;;;;5091253;28;20040;-74
2023/10/20 05:22:39;;;;;;;16.50;9.82;;;7.70;99.90;;;;;;5091183;28;20093;-72
2023/10/20 05:25:06;;;;;;;19.25;10.85;;;7.70;99.90;;;;;;5082957;28;20029;-74
2023/10/20 05:27:32;;;;;;;17.95;9.65;;;7.70;99.90;;;;;;5087009;28;20048;-74
2023/10/20 05:29:57;;;;;;;16.98;9.40;;;7.70;99.90;;;;;;5090888;28;20098;-73
2023/10/20 05:32:23;;;;;;;15.02;9.30;;;7.80;99.90;;;;;;5091623;28;20044;-72
2023/10/20 05:34:53;;;;;;;;;;;7.80;99.90;;;;;;5084451;28;20135;-72
2023/10/20 05:37:22;;;;;;;14.55;9.57;;;7.70;99.90;;;;;;5088059;28;20019;-75
2023/10/20 05:39:48;;;;;;;14.75;8.90;;;7.80;99.90;;;;;;5073599;28;20048;-70
2023/10/20 05:42:13;;;;;;;;;;;7.80;99.90;;;;;;5089115;28;20051;-72
2023/10/20 05:44:48;;;;;;;15.25;8.65;;;7.80;99.90;;;;;;5091969;28;20141;-71
2023/10/20 05:47:14;;;;;;;12.65;8.60;;;7.70;99.90;;;;;;5086435;28;20056;-72
2023/10/20 05:49:39;;;;;;;12.27;7.82;;;7.80;99.90;;;;;;5090932;28;20046;-72
2023/10/20 05:52:05;;;;;;;15.52;9.07;;;7.80;99.90;;;;;;5087471;28;20122;-72
2023/10/20 05:54:31;;;;;;;;;;;7.90;99.90;;;;;;5093680;28;20383;-72
2023/10/20 05:56:57;;;;;;;12.05;8.60;;;8.00;99.90;;;;;;5084819;28;20430;-74
2023/10/20 05:59:22;;;;;;;;;;;7.80;99.90;;;;;;5072454;28;20040;-73
2023/10/20 06:01:51;;;;;;;13.13;7.95;;;7.90;99.90;;;;;;5069883;28;20015;-77
2023/10/20 06:04:16;;;;;;;14.15;8.90;;;7.80;99.90;;;;;;5068905;28;20055;-81
2023/10/20 06:06:42;;;;;;;;;;;7.80;99.90;;;;;;5069118;28;20052;-84
2023/10/20 06:09:08;;;;;;;15.77;8.90;;;7.80;99.90;;;;;;5068654;28;19973;-75
2023/10/20 06:11:37;;;;;;;14.73;9.10;;;7.80;99.90;;;;;;5075949;28;20564;-74
2023/10/20 06:14:04;;;;;;;12.02;8.40;;;7.90;99.90;;;;;;5088376;28;20035;-72
2023/10/20 06:16:33;;;;;;;12.15;7.97;;;7.80;99.90;;;;;;5091280;28;20649;-73
2023/10/20 06:18:58;;;;;;;12.75;6.80;;;7.80;99.90;;;;;;5088861;28;20048;-71
2023/10/20 06:21:24;;;;;;;10.40;7.00;;;7.90;99.90;;;;;;5084221;28;20051;-74
2023/10/20 06:23:50;;;;;;;12.40;7.45;;;7.90;99.90;;;;;;5090874;28;20047;-73
2023/10/20 06:26:16;;;;;;;14.38;7.90;;;8.40;99.90;;;;;;5085625;28;20154;-72
2023/10/20 06:28:43;;;;;;;10.07;6.43;;;7.90;99.90;;;;;;5070974;28;20500;-73
2023/10/20 06:31:27;;;;;;;11.80;7.82;;;7.80;99.90;;;;;;5069739;28;20447;-72
2023/10/20 06:34:27;;;;;;;9.07;5.38;;;7.90;99.90;;;;;;5073742;28;20085;-69
2023/10/20 06:36:48;;;;;;;10.05;5.78;;;7.90;99.90;;;;;;5089489;28;20048;-68
2023/10/20 06:39:18;;;;;;;10.27;6.43;;;8.20;99.90;;;;;;5091230;28;20081;-71
2023/10/20 06:41:44;;;;;;;10.07;5.88;;;7.90;99.90;;;;;;5089201;28;20379;-72
2023/10/20 06:44:10;;;;;;;11.98;6.10;;;7.90;99.90;;;;;;5089483;28;20052;-71
2023/10/20 06:46:35;;;;;;;;;;;8.20;99.90;;;;;;5090430;28;20061;-76
2023/10/20 06:49:01;;;;;;;9.10;5.05;;;8.40;99.90;;;;;;5088683;28;19927;-79
2023/10/20 06:51:27;;;;;;;7.80;5.30;;;8.40;99.90;;;;;;5090713;28;20051;-75
2023/10/20 06:53:52;;;;;;;8.15;4.55;;;7.90;99.90;;;;;;5090065;28;20040;-74
2023/10/20 06:56:18;;;;;;;;;;;8.00;99.90;;;;;;5090707;28;20070;-74
2023/10/20 06:58:47;;;;;;;8.85;4.25;;;7.90;99.90;;;;;;5091445;28;20412;-75
2023/10/20 07:01:13;;;;;;;6.57;4.20;;;7.90;99.90;;;;;;5092681;28;20046;-74
2023/10/20 07:03:39;;;;;;;6.75;4.10;;;7.90;99.90;;;;;;5091084;28;20457;-76
2023/10/20 07:06:09;;;;;;;6.50;3.85;;;7.90;99.90;;;;;;5091457;28;20047;-75
2023/10/20 07:08:35;;;;;;;8.13;4.13;;;7.90;99.90;;;;;;5091457;28;20548;-75
2023/10/20 07:11:02;;;;;;;6.95;3.92;;;8.00;99.90;;;;;;5091508;28;20043;-76
2023/10/20 07:13:27;;;;;;;6.18;4.00;;;8.20;99.90;;;;;;5091566;28;20044;-75
2023/10/20 07:15:56;;;;;;;8.18;3.90;;;7.90;99.90;;;;;;5090432;28;20078;-75
2023/10/20 07:18:22;;;;;;;7.15;4.22;;;8.20;99.90;;;;;;5091450;28;20052;-74
2023/10/20 07:20:48;;;;;;;7.95;4.35;;;7.80;99.90;;;;;;5091167;28;20040;-76
2023/10/20 07:23:13;;;;;;;8.30;4.10;;;7.90;99.90;;;;;;5090288;28;20122;-74
2023/10/20 07:25:39;;;;;;;;;;;7.90;99.90;;;;;;5092888;28;20484;-72
2023/10/20 07:28:04;;;;;;;5.60;3.67;;;7.90;99.90;;;;;;5091029;28;19927;-73
2023/10/20 07:30:30;;;;;;;;;;;7.80;99.90;;;;;;5092199;28;20387;-73
2023/10/20 07:32:56;;;;;;;7.28;3.78;;;7.80;99.90;;;;;;5091318;28;19920;-73
2023/10/20 07:35:21;;;;;;;;;;;7.80;99.90;;;;;;5092826;28;20036;-71
2023/10/20 07:37:47;;;;;;;6.97;3.83;;;7.90;99.90;;;;;;5090023;28;20011;-72
2023/10/20 07:40:13;;;;;;;;;;;7.80;99.90;;;;;;5091784;28;20444;-71
2023/10/20 07:42:39;;;;;;;6.38;3.80;;;7.70;99.90;;;;;;5091317;28;19920;-72
2023/10/20 07:45:06;;;;;;;;;;;7.80;99.90;;;;;;5092620;28;20040;-72
2023/10/20 07:47:32;;;;;;;;;;;7.70;99.90;;;;;;5095449;28;19920;-71
2023/10/20 07:49:58;;;;;;;6.80;4.68;;;7.80;99.90;;;;;;5096306;28;19920;-71
2023/10/20 07:52:24;;;;;;;;;;;7.80;99.90;;;;;;5095221;28;20046;-71
2023/10/20 07:54:49;;;;;;;7.13;4.10;;;7.80;99.90;;;;;;5091628;28;19920;-72
2023/10/20 07:57:18;;;;;;;5.63;3.72;;;7.80;99.90;;;;;;5091889;28;20093;-75
2023/10/20 07:59:45;;;;;;;6.03;3.70;;;7.80;99.90;;;;;;5092820;28;20131;-72
2023/10/20 08:02:10;;;;;;;6.85;4.18;;;7.80;99.90;;;;;;5090982;28;20044;-71
2023/10/20 08:04:42;;;;;;;;;;;7.80;99.90;;;;;;5083999;28;20047;-71
2023/10/20 08:07:11;;;;;;;6.38;3.40;;;8.00;99.90;;;;;;5092536;28;20368;-71
2023/10/20 08:09:36;;;;;;;5.72;3.38;;;7.80;99.90;;;;;;5092901;28;20054;-73
2023/10/20 08:12:02;;;;;;;;;;;7.70;99.90;;;;;;5092888;28;20139;-71
2023/10/20 08:14:33;;;;;;;5.45;3.28;;;7.60;99.90;;;;;;5078111;28;19927;-71
2023/10/20 08:17:03;;;;;;;6.22;3.03;;;7.60;99.90;;;;;;5090933;28;20079;-72
2023/10/20 08:19:29;;;;;;;5.72;3.22;;;7.60;99.90;;;;;;5092914;28;20048;-71
2023/10/20 08:21:54;;;;;;;;;;;7.60;99.90;;;;;;5075304;28;20047;-71
2023/10/20 08:24:20;;;;;;;5.93;3.38;;;7.60;99.90;;;;;;5082187;28;19994;-69
2023/10/20 08:26:45;;;;;;;;;;;7.50;99.90;;;;;;5092427;28;20044;-72
2023/10/20 08:29:11;;;;;;;5.15;3.28;;;7.50;99.90;;;;;;5093999;28;19970;-72
2023/10/20 08:31:38;;;;;;;4.70;2.95;;;7.50;99.90;;;;;;5095576;28;20048;-73
2023/10/20 08:34:04;;;;;;;5.28;3.33;;;7.50;99.90;;;;;;5094183;28;20036;-72
2023/10/20 08:36:30;;;;;;;4.68;2.78;;;7.40;99.90;;;;;;5093899;28;20113;-72
2023/10/20 08:39:01;;;;;;;5.00;3.47;;;7.40;99.90;;;;;;5093775;28;20087;-72
2023/10/20 08:41:27;;;;;;;6.43;3.92;;;7.40;99.90;;;;;;5093577;28;20055;-72
2023/10/20 08:43:52;;;;;;;5.53;3.65;;;7.40;99.90;;;;;;5093545;28;20048;-71
2023/10/20 08:46:18;;;;;;;;;;;7.40;99.90;;;;;;5094977;28;20044;-72
2023/10/20 08:48:45;;;;;;;4.25;2.88;;;7.40;99.90;;;;;;5093605;28;19920;-72
2023/10/20 08:51:13;;;;;;;5.18;3.33;;;7.40;99.90;;;;;;5093289;28;20048;-71
2023/10/20 08:53:40;;;;;;;4.45;2.90;;;7.40;99.90;;;;;;5093966;28;20129;-71
2023/10/20 08:56:11;;;;;;;4.22;2.80;;;7.40;99.90;;;;;;5091841;28;20050;-72
2023/10/20 08:58:38;;;;;;;4.18;2.50;;;7.40;99.90;;;;;;5093720;28;20093;-72
2023/10/20 09:01:08;;;;;;;6.22;2.50;;;7.40;99.90;;;;;;5093644;28;20040;-71
2023/10/20 09:03:45;;;;;;;4.55;2.90;;;7.40;99.90;;;;;;5094156;28;20052;-72
2023/10/20 09:06:14;;;;;;;6.40;3.00;;;7.40;99.90;;;;;;5093566;28;20043;-73
2023/10/20 09:08:46;;;;;;;4.93;3.17;;;7.40;99.90;;;;;;5094018;28;20052;-72
2023/10/20 09:11:12;;;;;;;4.55;2.72;;;7.40;99.90;;;;;;5093450;28;20391;-72
2023/10/20 09:13:39;;;;;;;;;;;7.70;99.90;;;;;;5094465;28;20040;-72
2023/10/20 09:16:09;;;;;;;;;;;7.40;99.90;;;;;;5093418;28;20256;-72
2023/10/20 09:18:49;;;;;;;6.15;3.00;;;7.40;99.90;;;;;;5093683;28;19966;-72
2023/10/20 09:21:17;;;;;;;4.97;2.75;;;7.40;99.90;;;;;;5094869;28;20052;-72
2023/10/20 09:24:05;;;;;;;4.75;2.83;;;7.40;99.90;;;;;;5092704;28;20048;-72
2023/10/20 09:26:38;;;;;;;4.57;2.40;;;7.40;99.90;;;;;;5093640;28;20093;-72
2023/10/20 09:29:05;;;;;;;4.78;2.70;;;7.40;99.90;;;;;;5093193;28;20384;-71
2023/10/20 09:31:32;;;;;;;4.88;2.00;;;7.40;99.90;;;;;;5092811;28;20469;-72
2023/10/20 09:33:58;;;;;;;4.00;2.10;;;7.40;99.90;;;;;;5093034;28;20506;-71
2023/10/20 09:36:24;;;;;;;3.20;1.90;;;7.40;99.90;;;;;;5092261;28;20098;-71
2023/10/20 09:38:55;;;;;;;5.03;2.70;;;7.70;99.90;;;;;;5092300;28;20170;-71
2023/10/20 09:41:23;;;;;;;4.10;2.78;;;7.60;99.90;;;;;;5093238;28;20134;-71
2023/10/20 09:43:53;;;;;;;5.63;3.65;;;7.30;99.90;;;;;;5092486;28;20391;-71
2023/10/20 09:46:43;;;;;;;4.93;2.63;;;7.40;99.90;;;;;;5092835;28;20137;-71
2023/10/20 09:49:24;;;;;;;4.07;2.10;;;7.40;99.90;;;;;;5093039;28;20055;-71
2023/10/20 09:51:50;;;;;;;3.20;1.67;;;7.40;99.90;;;;;;5092175;28;20094;-71
2023/10/20 09:54:17;;;;;;;;;;;7.40;99.90;;;;;;5093543;28;20048;-69
2023/10/20 09:56:44;;;;;;;;;;;7.40;99.90;;;;;;5093316;28;19923;-71
2023/10/20 09:59:15;;;;;;;2.80;1.60;;;7.40;99.90;;;;;;5091782;28;19926;-70
2023/10/20 10:01:43;;;;;;;3.10;1.50;;;7.40;99.90;;;;;;5092975;28;20048;-70
2023/10/20 10:04:10;;;;;;;3.30;1.58;;;7.40;99.90;;;;;;5092516;28;20052;-70
2023/10/20 10:06:37;;;;;;;3.75;2.00;;;7.30;99.90;;;;;;5092699;28;20131;-71
2023/10/20 10:09:06;;;;;;;3.78;2.20;;;7.30;99.90;;;;;;5092170;28;20138;-71
2023/10/20 10:11:42;;;;;;;4.72;2.10;;;7.30;99.90;;;;;;5091641;28;20044;-75
2023/10/20 10:14:08;;;;;;;;;;;7.20;99.90;;;;;;5092820;28;20135;-71
2023/10/20 10:16:55;;;;;;;3.13;1.40;;;7.20;99.90;;;;;;5091978;28;19920;-74
2023/10/20 10:19:24;;;;;;;3.95;1.60;;;7.30;99.90;;;;;;5091202;28;20050;-75
2023/10/20 10:21:59;;;;;;;3.05;1.73;;;7.80;99.90;;;;;;5092208;28;20119;-74
2023/10/20 10:24:25;;;;;;;2.47;1.48;;;7.40;99.90;;;;;;5092335;28;20044;-76
2023/10/20 10:26:51;;;;;;;3.20;1.45;;;7.30;99.90;;;;;;5091261;28;20087;-76
2023/10/20 10:29:38;;;;;;;2.80;1.52;;;7.40;99.90;;;;;;5092528;28;20074;-74
2023/10/20 10:32:10;;;;;;;4.78;1.60;;;7.20;99.90;;;;;;5080840;28;20055;-75
2023/10/20 10:34:46;;;;;;;3.00;1.60;;;7.20;99.90;;;;;;5091582;28;20131;-78
2023/10/20 10:37:12;;;;;;;2.47;1.40;;;7.30;99.90;;;;;;5092068;28;20044;-74
2023/10/20 10:39:47;;;;;;;3.10;1.50;;;7.20;99.90;;;;;;5091562;28;20044;-72
2023/10/20 10:42:12;;;;;;;3.45;1.55;;;7.30;99.90;;;;;;5091704;28;20525;-74
2023/10/20 10:44:38;;;;;;;2.58;1.58;;;7.40;99.90;;;;;;5088776;28;20049;-72
2023/10/20 10:47:04;;;;;;;;;;;7.20;99.90;;;;;;5087583;28;20048;-72
2023/10/20 10:49:33;;;;;;;4.93;3.77;;;7.20;99.90;;;;;;5091797;28;20156;-72
2023/10/20 10:52:07;;;;;;;2.22;1.20;;;7.20;99.90;;;;;;5091980;28;20501;-73
2023/10/20 10:54:33;;;;;;;2.72;1.33;;;7.20;99.90;;;;;;5082165;28;20048;-74
2023/10/20 10:57:01;;;;;;;2.83;1.50;;;7.20;99.90;;;;;;5088781;28;20048;-72
2023/10/20 10:59:27;;;;;;;4.53;1.80;;;7.40;99.90;;;;;;5092723;28;20047;-71
2023/10/20 11:01:53;;;;;;;3.75;1.77;;;7.10;99.90;;;;;;5090713;28;20050;-70
2023/10/20 11:04:19;;;;;;;5.20;2.50;;;7.20;99.90;;;;;;5091392;28;20051;-71
2023/10/20 11:06:45;;;;;;;3.80;2.25;;;7.10;99.90;;;;;;5091641;28;20098;-69
2023/10/20 11:09:13;;;;;;;5.05;2.88;;;7.10;99.90;;;;;;5086109;28;20434;-71
2023/10/20 11:11:45;;;;;;;3.80;1.80;;;7.10;99.90;;;;;;5083197;28;20047;-69
2023/10/20 11:14:19;;;;;;;3.35;1.60;;;7.10;99.90;;;;;;5092181;28;20048;-72
2023/10/20 11:16:45;;;;;;;3.28;1.63;;;7.10;99.90;;;;;;5090806;28;20050;-69
2023/10/20 11:19:12;;;;;;;3.03;1.60;;;7.10;99.90;;;;;;5090674;28;20051;-69
2023/10/20 11:21:56;;;;;;;2.60;1.30;;;7.10;99.90;;;;;;5091892;28;20094;-71
2023/10/20 11:24:31;;;;;;;2.17;1.17;;;7.30;99.90;;;;;;5092683;28;20474;-70
2023/10/20 11:27:01;;;;;;;3.22;1.27;;;7.00;99.90;;;;;;5090740;28;20126;-70
2023/10/20 11:29:30;;;;;;;2.53;1.10;;;7.10;99.90;;;;;;5092154;28;20033;-72
2023/10/20 11:32:00;;;;;;;3.38;1.77;;;7.00;99.90;;;;;;5091283;28;20139;-70
2023/10/20 11:34:27;;;;;;;3.22;1.55;;;7.00;99.90;;;;;;5091391;28;20079;-70
2023/10/20 11:36:53;;;;;;;2.60;1.60;;;6.90;99.90;;;;;;5090054;28;20394;-71
2023/10/20 11:39:21;;;;;;;4.07;2.60;;;7.20;99.90;;;;;;5091310;28;20384;-70
2023/10/20 11:41:47;;;;;;;3.45;1.98;;;6.90;99.90;;;;;;5090535;28;20079;-69
2023/10/20 11:44:13;;;;;;;4.85;2.92;;;6.90;99.90;;;;;;5090841;28;20044;-69
2023/10/20 11:46:39;;;;;;;4.00;2.40;;;6.90;99.90;;;;;;5091165;28;20052;-69
2023/10/20 11:49:04;;;;;;;4.32;2.20;;;7.90;99.90;;;;;;5092098;28;20122;-69
2023/10/20 11:51:30;;;;;;;;;;;7.00;99.90;;;;;;5090763;28;20101;-69
2023/10/20 11:53:55;;;;;;;4.90;1.75;;;7.90;99.90;;;;;;5090836;28;19920;-69
2023/10/20 11:56:21;;;;;;;;;;;7.00;99.90;;;;;;5091475;28;20051;-69
2023/10/20 11:58:46;;;;;;;4.22;2.58;;;7.40;99.90;;;;;;5089873;28;20022;-69
2023/10/20 12:01:12;;;;;;;;;;;7.00;99.90;;;;;;5090696;28;20081;-69
2023/10/20 12:03:38;;;;;;;3.40;1.90;;;7.10;99.90;;;;;;5090897;28;20287;-70
2023/10/20 12:06:04;;;;;;;;;;;7.10;99.90;;;;;;5090161;28;20502;-70
2023/10/20 12:08:32;;;;;;;5.05;1.73;;;7.00;99.90;;;;;;5091094;28;19920;-70
2023/10/20 12:10:58;;;;;;;2.50;1.38;;;8.70;99.90;;;;;;5090399;28;20059;-70
2023/10/20 12:13:23;;;;;;;2.83;1.75;;;7.00;99.90;;;;;;5090638;28;20048;-70
2023/10/20 12:15:49;;;;;;;;;;;7.00;99.90;;;;;;5091214;28;20127;-70
2023/10/20 12:18:15;;;;;;;2.83;1.63;;;7.00;99.90;;;;;;5090005;28;19919;-72
2023/10/20 12:20:41;;;;;;;;;;;7.00;99.90;;;;;;5091632;28;20407;-71
2023/10/20 12:23:07;;;;;;;2.40;1.13;;;7.00;99.90;;;;;;5089475;28;20078;-71
2023/10/20 12:25:32;;;;;;;;;;;7.00;99.90;;;;;;5090800;28;20864;-71
2023/10/20 12:27:59;;;;;;;2.88;1.23;;;7.00;99.90;;;;;;5090366;28;19962;-71
2023/10/20 12:30:26;;;;;;;3.42;1.73;;;7.00;99.90;;;;;;5091764;28;20127;-71
2023/10/20 12:32:52;;;;;;;2.75;1.30;;;7.00;99.90;;;;;;5093705;28;20035;-72
2023/10/20 12:35:18;;;;;;;;;;;7.00;99.90;;;;;;5094709;28;20125;-77
2023/10/20 12:37:43;;;;;;;2.42;1.30;;;7.00;99.90;;;;;;5094312;28;19970;-71
2023/10/20 12:40:11;;;;;;;2.90;1.20;;;6.90;99.90;;;;;;5078031;28;20045;-71
2023/10/20 12:42:37;;;;;;;2.40;1.35;;;7.00;99.90;;;;;;5073301;28;20442;-72
2023/10/20 12:45:09;;;;;;;3.03;1.55;;;7.00;99.90;;;;;;5073555;28;20047;-72
2023/10/20 12:47:37;;;;;;;2.67;1.30;;;6.90;99.90;;;;;;5072831;28;20057;-72
2023/10/20 12:50:03;;;;;;;2.72;1.20;;;7.00;99.90;;;;;;5073852;28;20440;-72
2023/10/20 12:52:29;;;;;;;2.83;1.30;;;7.00;99.90;;;;;;5074166;28;20044;-72
2023/10/20 12:54:57;;;;;;;2.13;1.10;;;6.90;99.90;;;;;;5084844;28;20036;-72
2023/10/20 12:57:23;;;;;;;2.15;1.20;;;6.90;99.90;;;;;;5094847;28;20490;-71
2023/10/20 12:59:49;;;;;;;;;;;7.10;99.90;;;;;;5094028;28;20135;-71
2023/10/20 13:02:14;;;;;;;1.75;1.10;;;7.00;99.90;;;;;;5092949;28;19920;-70
2023/10/20 13:04:40;;;;;;;;;;;7.00;99.90;;;;;;5094153;28;20071;-71
2023/10/20 13:07:06;;;;;;;1.75;0.85;;;7.00;99.90;;;;;;5094580;28;19934;-72
2023/10/20 13:09:31;;;;;;;2.88;1.20;;;7.00;99.90;;;;;;5094216;28;20048;-72
2023/10/20 13:11:57;;;;;;;1.60;0.90;;;7.00;99.90;;;;;;5093768;28;20067;-72
2023/10/20 13:14:23;;;;;;;3.55;1.00;;;6.90;99.90;;;;;;5092945;28;20072;-72
2023/10/20 13:16:49;;;;;;;1.85;1.00;;;7.00;99.90;;;;;;5094303;28;20111;-72
2023/10/20 13:19:15;;;;;;;;;;;7.00;99.90;;;;;;5094262;28;20048;-71
2023/10/20 13:21:41;;;;;;;1.95;1.20;;;7.00;99.90;;;;;;5093135;28;19924;-72
2023/10/20 13:24:06;;;;;;;1.75;0.85;;;7.00;99.90;;;;;;5093220;28;20043;-71
2023/10/20 13:26:33;;;;;;;2.03;1.10;;;6.90;99.90;;;;;;5092592;28;20048;-71
2023/10/20 13:28:59;;;;;;;2.97;1.10;;;6.90;99.90;;;;;;5092356;28;20044;-71
2023/10/20 13:31:26;;;;;;;2.92;1.30;;;7.10;99.90;;;;;;5093476;28;20121;-70
2023/10/20 13:33:55;;;;;;;2.88;1.60;;;6.90;99.90;;;;;;5094131;28;20075;-70
2023/10/20 13:36:21;;;;;;;2.50;1.08;;;6.90;99.90;;;;;;5092260;28;20052;-70
2023/10/20 13:38:47;;;;;;;;;;;6.80;99.90;;;;;;5083135;28;20036;-70
2023/10/20 13:41:13;;;;;;;3.17;1.13;;;6.80;99.90;;;;;;5092148;28;19927;-79